KSLG/SLG METAR and TAF weather

Enter ICAO airport designator
Station Type Date Time Source
KSLG METAR 2022/08/16 19:56 UTC NOAA

KSLG 161956Z AUTO 14006KT 10SM SCT060 33/24 A2994 RMK AO2 SLP120 T03330244


Station Type Date Time Source
KSLG Decoded METAR 2022/08/16 19:56 UTC NOAA

Siloam Springs, Smith Field Airport, AR, United States (KSLG) 36-12N 094-29W
Aug 16, 2022 - 03:56 PM EDT / 2022.08.16 1956 UTC
Wind: from the SE (140 degrees) at 7 MPH (6 KT):0
Visibility: 10 mile(s):0
Sky conditions: partly cloudy
Temperature: 91.9 F (33.3 C)
Heat index: 103.8 F (39.9 C):1
Dew Point: 75.9 F (24.4 C)
Relative Humidity: 59%
Pressure (altimeter): 29.94 in. Hg (1013 hPa)
ob: KSLG 161956Z AUTO 14006KT 10SM SCT060 33/24 A2994 RMK AO2 SLP120 T03330244
cycle: 20

Station Type Date Time Source
KSLG TAF UTC NOAA

Error!

Example: see airport list